sensor_id;sensor_type;location;lat;lon;timestamp;P1;durP1;ratioP1;P2;durP2;ratioP2
40284;SDS011;25997;50.214;19.354;2023-07-16T00:02:53;5.85;;;5.00;;
40284;SDS011;25997;50.214;19.354;2023-07-16T00:05:57;5.75;;;5.10;;
40284;SDS011;25997;50.214;19.354;2023-07-16T00:08:59;5.25;;;4.75;;
40284;SDS011;25997;50.214;19.354;2023-07-16T00:12:02;8.32;;;5.13;;
40284;SDS011;25997;50.214;19.354;2023-07-16T00:15:05;6.25;;;4.50;;
40284;SDS011;25997;50.214;19.354;2023-07-16T00:18:09;5.22;;;4.72;;
40284;SDS011;25997;50.214;19.354;2023-07-16T00:21:12;5.72;;;4.60;;
40284;SDS011;25997;50.214;19.354;2023-07-16T00:24:15;5.07;;;4.43;;
40284;SDS011;25997;50.214;19.354;2023-07-16T00:27:17;5.55;;;5.05;;
40284;SDS011;25997;50.214;19.354;2023-07-16T00:30:20;6.45;;;5.07;;
40284;SDS011;25997;50.214;19.354;2023-07-16T00:33:23;5.50;;;4.57;;
40284;SDS011;25997;50.214;19.354;2023-07-16T00:36:27;5.07;;;4.57;;
40284;SDS011;25997;50.214;19.354;2023-07-16T00:39:30;5.00;;;4.47;;
40284;SDS011;25997;50.214;19.354;2023-07-16T00:42:32;5.95;;;5.15;;
40284;SDS011;25997;50.214;19.354;2023-07-16T00:45:34;5.85;;;4.95;;
40284;SDS011;25997;50.214;19.354;2023-07-16T00:48:37;5.63;;;4.97;;
40284;SDS011;25997;50.214;19.354;2023-07-16T00:51:43;7.00;;;5.32;;
40284;SDS011;25997;50.214;19.354;2023-07-16T00:54:46;5.38;;;4.75;;
40284;SDS011;25997;50.214;19.354;2023-07-16T00:57:50;6.03;;;4.97;;
40284;SDS011;25997;50.214;19.354;2023-07-16T01:00:53;6.05;;;4.82;;
40284;SDS011;25997;50.214;19.354;2023-07-16T01:03:55;5.70;;;5.20;;
40284;SDS011;25997;50.214;19.354;2023-07-16T01:07:00;5.38;;;4.88;;
40284;SDS011;25997;50.214;19.354;2023-07-16T01:10:06;5.93;;;5.15;;
40284;SDS011;25997;50.214;19.354;2023-07-16T01:13:10;5.53;;;4.95;;
40284;SDS011;25997;50.214;19.354;2023-07-16T01:16:22;5.80;;;4.90;;
40284;SDS011;25997;50.214;19.354;2023-07-16T01:19:25;5.22;;;4.72;;
40284;SDS011;25997;50.214;19.354;2023-07-16T01:22:35;5.75;;;5.22;;
40284;SDS011;25997;50.214;19.354;2023-07-16T01:26:08;8.07;;;4.78;;
40284;SDS011;25997;50.214;19.354;2023-07-16T01:29:28;6.93;;;5.63;;
40284;SDS011;25997;50.214;19.354;2023-07-16T01:32:32;7.35;;;6.45;;
40284;SDS011;25997;50.214;19.354;2023-07-16T01:35:37;5.45;;;4.90;;
40284;SDS011;25997;50.214;19.354;2023-07-16T01:38:42;5.85;;;5.15;;
40284;SDS011;25997;50.214;19.354;2023-07-16T01:41:44;5.25;;;4.75;;
40284;SDS011;25997;50.214;19.354;2023-07-16T01:44:48;6.03;;;4.85;;
40284;SDS011;25997;50.214;19.354;2023-07-16T01:47:53;5.30;;;4.80;;
40284;SDS011;25997;50.214;19.354;2023-07-16T01:51:03;5.20;;;4.65;;
40284;SDS011;25997;50.214;19.354;2023-07-16T01:54:06;5.93;;;5.28;;
40284;SDS011;25997;50.214;19.354;2023-07-16T01:57:09;4.97;;;4.18;;
40284;SDS011;25997;50.214;19.354;2023-07-16T02:00:13;6.18;;;4.85;;
40284;SDS011;25997;50.214;19.354;2023-07-16T02:03:21;5.10;;;4.60;;
40284;SDS011;25997;50.214;19.354;2023-07-16T02:06:24;6.72;;;4.40;;
40284;SDS011;25997;50.214;19.354;2023-07-16T02:09:26;5.82;;;5.22;;
40284;SDS011;25997;50.214;19.354;2023-07-16T02:12:28;5.82;;;4.68;;
40284;SDS011;25997;50.214;19.354;2023-07-16T02:15:32;5.32;;;4.63;;
40284;SDS011;25997;50.214;19.354;2023-07-16T02:18:37;8.27;;;5.13;;
40284;SDS011;25997;50.214;19.354;2023-07-16T02:21:39;5.20;;;4.70;;
40284;SDS011;25997;50.214;19.354;2023-07-16T02:24:42;7.03;;;5.10;;
40284;SDS011;25997;50.214;19.354;2023-07-16T02:27:44;5.35;;;4.85;;
40284;SDS011;25997;50.214;19.354;2023-07-16T02:30:49;4.78;;;4.22;;
40284;SDS011;25997;50.214;19.354;2023-07-16T02:33:52;5.20;;;4.70;;
40284;SDS011;25997;50.214;19.354;2023-07-16T02:36:54;5.15;;;4.65;;
40284;SDS011;25997;50.214;19.354;2023-07-16T02:39:57;6.43;;;5.10;;
40284;SDS011;25997;50.214;19.354;2023-07-16T02:43:00;9.13;;;6.45;;
40284;SDS011;25997;50.214;19.354;2023-07-16T02:46:04;7.15;;;6.00;;
40284;SDS011;25997;50.214;19.354;2023-07-16T02:49:07;9.15;;;7.03;;
40284;SDS011;25997;50.214;19.354;2023-07-16T02:52:10;12.93;;;10.10;;
40284;SDS011;25997;50.214;19.354;2023-07-16T02:55:13;9.02;;;7.25;;
40284;SDS011;25997;50.214;19.354;2023-07-16T02:58:15;6.80;;;5.93;;
40284;SDS011;25997;50.214;19.354;2023-07-16T03:01:19;8.13;;;5.50;;
40284;SDS011;25997;50.214;19.354;2023-07-16T03:04:22;20.05;;;14.40;;
40284;SDS011;25997;50.214;19.354;2023-07-16T03:07:26;14.75;;;13.25;;
40284;SDS011;25997;50.214;19.354;2023-07-16T03:10:29;12.55;;;11.25;;
40284;SDS011;25997;50.214;19.354;2023-07-16T03:13:31;17.90;;;14.80;;
40284;SDS011;25997;50.214;19.354;2023-07-16T03:16:35;12.38;;;10.65;;
40284;SDS011;25997;50.214;19.354;2023-07-16T03:19:37;13.90;;;10.88;;
40284;SDS011;25997;50.214;19.354;2023-07-16T03:22:40;10.00;;;6.88;;
40284;SDS011;25997;50.214;19.354;2023-07-16T03:25:43;9.13;;;6.25;;
40284;SDS011;25997;50.214;19.354;2023-07-16T03:28:47;12.25;;;11.02;;
40284;SDS011;25997;50.214;19.354;2023-07-16T03:31:51;12.20;;;10.80;;
40284;SDS011;25997;50.214;19.354;2023-07-16T03:34:55;14.40;;;11.30;;
40284;SDS011;25997;50.214;19.354;2023-07-16T03:37:59;8.10;;;7.30;;
40284;SDS011;25997;50.214;19.354;2023-07-16T03:41:03;8.02;;;6.88;;
40284;SDS011;25997;50.214;19.354;2023-07-16T03:44:06;8.85;;;5.80;;
40284;SDS011;25997;50.214;19.354;2023-07-16T03:47:12;6.70;;;5.00;;
40284;SDS011;25997;50.214;19.354;2023-07-16T03:50:14;6.38;;;5.28;;
40284;SDS011;25997;50.214;19.354;2023-07-16T03:53:17;7.10;;;5.47;;
40284;SDS011;25997;50.214;19.354;2023-07-16T03:56:19;5.18;;;4.68;;
40284;SDS011;25997;50.214;19.354;2023-07-16T03:59:22;6.28;;;5.57;;
40284;SDS011;25997;50.214;19.354;2023-07-16T04:02:27;5.50;;;4.95;;
40284;SDS011;25997;50.214;19.354;2023-07-16T04:05:30;6.47;;;5.60;;
40284;SDS011;25997;50.214;19.354;2023-07-16T04:08:32;7.22;;;6.38;;
40284;SDS011;25997;50.214;19.354;2023-07-16T04:11:35;8.00;;;6.75;;
40284;SDS011;25997;50.214;19.354;2023-07-16T04:14:37;8.30;;;7.30;;
40284;SDS011;25997;50.214;19.354;2023-07-16T04:17:41;12.27;;;10.55;;
40284;SDS011;25997;50.214;19.354;2023-07-16T04:20:43;9.80;;;8.90;;
40284;SDS011;25997;50.214;19.354;2023-07-16T04:23:46;10.82;;;9.70;;
40284;SDS011;25997;50.214;19.354;2023-07-16T04:26:48;8.52;;;7.72;;
40284;SDS011;25997;50.214;19.354;2023-07-16T04:29:50;11.50;;;10.00;;
40284;SDS011;25997;50.214;19.354;2023-07-16T04:32:54;10.77;;;9.73;;
40284;SDS011;25997;50.214;19.354;2023-07-16T04:35:57;18.58;;;16.98;;
40284;SDS011;25997;50.214;19.354;2023-07-16T04:38:59;13.18;;;11.98;;
40284;SDS011;25997;50.214;19.354;2023-07-16T04:42:02;12.23;;;10.40;;
40284;SDS011;25997;50.214;19.354;2023-07-16T04:45:04;9.73;;;8.82;;
40284;SDS011;25997;50.214;19.354;2023-07-16T04:48:09;9.68;;;8.77;;
40284;SDS011;25997;50.214;19.354;2023-07-16T04:51:11;7.07;;;6.38;;
40284;SDS011;25997;50.214;19.354;2023-07-16T04:54:13;7.10;;;5.55;;
40284;SDS011;25997;50.214;19.354;2023-07-16T04:57:16;5.15;;;4.65;;
40284;SDS011;25997;50.214;19.354;2023-07-16T05:00:18;5.20;;;4.70;;
40284;SDS011;25997;50.214;19.354;2023-07-16T05:03:22;4.95;;;4.47;;
40284;SDS011;25997;50.214;19.354;2023-07-16T05:06:25;5.97;;;4.85;;
40284;SDS011;25997;50.214;19.354;2023-07-16T05:09:27;4.85;;;4.35;;
40284;SDS011;25997;50.214;19.354;2023-07-16T05:12:29;5.07;;;4.57;;
40284;SDS011;25997;50.214;19.354;2023-07-16T05:15:32;5.85;;;4.30;;
40284;SDS011;25997;50.214;19.354;2023-07-16T05:18:36;7.43;;;5.20;;
40284;SDS011;25997;50.214;19.354;2023-07-16T05:21:38;5.07;;;4.57;;
40284;SDS011;25997;50.214;19.354;2023-07-16T05:24:40;7.00;;;4.60;;
40284;SDS011;25997;50.214;19.354;2023-07-16T05:27:43;6.40;;;4.97;;
40284;SDS011;25997;50.214;19.354;2023-07-16T05:30:45;6.97;;;4.95;;
40284;SDS011;25997;50.214;19.354;2023-07-16T05:33:49;5.10;;;4.60;;
40284;SDS011;25997;50.214;19.354;2023-07-16T05:36:52;5.63;;;5.00;;
40284;SDS011;25997;50.214;19.354;2023-07-16T05:39:55;5.05;;;4.65;;
40284;SDS011;25997;50.214;19.354;2023-07-16T05:42:58;5.32;;;4.80;;
40284;SDS011;25997;50.214;19.354;2023-07-16T05:46:00;5.05;;;4.55;;
40284;SDS011;25997;50.214;19.354;2023-07-16T05:49:04;5.75;;;5.15;;
40284;SDS011;25997;50.214;19.354;2023-07-16T05:52:06;5.93;;;4.75;;
40284;SDS011;25997;50.214;19.354;2023-07-16T05:55:09;4.97;;;4.57;;
40284;SDS011;25997;50.214;19.354;2023-07-16T05:58:12;6.93;;;5.10;;
40284;SDS011;25997;50.214;19.354;2023-07-16T06:01:14;6.35;;;5.05;;
40284;SDS011;25997;50.214;19.354;2023-07-16T06:04:18;6.47;;;5.88;;
40284;SDS011;25997;50.214;19.354;2023-07-16T06:07:20;5.50;;;5.00;;
40284;SDS011;25997;50.214;19.354;2023-07-16T06:10:23;6.97;;;6.28;;
40284;SDS011;25997;50.214;19.354;2023-07-16T06:13:25;9.82;;;8.60;;
40284;SDS011;25997;50.214;19.354;2023-07-16T06:16:28;9.32;;;8.43;;
40284;SDS011;25997;50.214;19.354;2023-07-16T06:19:32;15.02;;;13.52;;
40284;SDS011;25997;50.214;19.354;2023-07-16T06:22:35;8.32;;;7.53;;
40284;SDS011;25997;50.214;19.354;2023-07-16T06:25:38;7.05;;;6.45;;
40284;SDS011;25997;50.214;19.354;2023-07-16T06:28:44;7.78;;;5.50;;
40284;SDS011;25997;50.214;19.354;2023-07-16T06:31:56;6.35;;;5.75;;
40284;SDS011;25997;50.214;19.354;2023-07-16T06:35:00;6.18;;;5.68;;
40284;SDS011;25997;50.214;19.354;2023-07-16T06:38:02;5.90;;;5.25;;
40284;SDS011;25997;50.214;19.354;2023-07-16T06:41:05;7.43;;;5.18;;
40284;SDS011;25997;50.214;19.354;2023-07-16T06:44:08;5.22;;;4.72;;
40284;SDS011;25997;50.214;19.354;2023-07-16T06:47:10;7.10;;;6.05;;
40284;SDS011;25997;50.214;19.354;2023-07-16T06:50:14;10.77;;;5.78;;
40284;SDS011;25997;50.214;19.354;2023-07-16T06:53:16;6.30;;;5.30;;
40284;SDS011;25997;50.214;19.354;2023-07-16T06:56:19;7.32;;;6.30;;
40284;SDS011;25997;50.214;19.354;2023-07-16T06:59:21;8.18;;;7.35;;
40284;SDS011;25997;50.214;19.354;2023-07-16T07:02:24;7.85;;;7.13;;
40284;SDS011;25997;50.214;19.354;2023-07-16T07:05:28;5.93;;;5.32;;
40284;SDS011;25997;50.214;19.354;2023-07-16T07:08:30;9.50;;;8.52;;
40284;SDS011;25997;50.214;19.354;2023-07-16T07:11:32;6.18;;;5.50;;
40284;SDS011;25997;50.214;19.354;2023-07-16T07:14:35;6.38;;;5.78;;
40284;SDS011;25997;50.214;19.354;2023-07-16T07:17:37;5.57;;;5.00;;
40284;SDS011;25997;50.214;19.354;2023-07-16T07:20:42;6.03;;;5.22;;
40284;SDS011;25997;50.214;19.354;2023-07-16T07:23:44;5.93;;;5.03;;
40284;SDS011;25997;50.214;19.354;2023-07-16T07:26:46;7.75;;;6.95;;
40284;SDS011;25997;50.214;19.354;2023-07-16T07:29:49;6.30;;;5.70;;
40284;SDS011;25997;50.214;19.354;2023-07-16T07:32:52;6.05;;;5.50;;
40284;SDS011;25997;50.214;19.354;2023-07-16T07:35:56;6.63;;;6.03;;
40284;SDS011;25997;50.214;19.354;2023-07-16T07:38:58;6.60;;;5.78;;
40284;SDS011;25997;50.214;19.354;2023-07-16T07:42:01;6.80;;;6.20;;
40284;SDS011;25997;50.214;19.354;2023-07-16T07:45:03;8.75;;;6.97;;
40284;SDS011;25997;50.214;19.354;2023-07-16T07:48:07;6.13;;;5.60;;
40284;SDS011;25997;50.214;19.354;2023-07-16T07:51:10;7.65;;;6.22;;
40284;SDS011;25997;50.214;19.354;2023-07-16T07:54:13;5.55;;;4.90;;
40284;SDS011;25997;50.214;19.354;2023-07-16T07:57:15;6.28;;;5.50;;
40284;SDS011;25997;50.214;19.354;2023-07-16T08:00:18;7.93;;;5.50;;
40284;SDS011;25997;50.214;19.354;2023-07-16T08:03:20;6.90;;;5.32;;
40284;SDS011;25997;50.214;19.354;2023-07-16T08:06:24;6.13;;;5.40;;
40284;SDS011;25997;50.214;19.354;2023-07-16T08:09:27;5.85;;;5.30;;
40284;SDS011;25997;50.214;19.354;2023-07-16T08:12:29;6.47;;;5.85;;
40284;SDS011;25997;50.214;19.354;2023-07-16T08:15:32;6.15;;;5.10;;
40284;SDS011;25997;50.214;19.354;2023-07-16T08:18:35;7.30;;;5.82;;
40284;SDS011;25997;50.214;19.354;2023-07-16T08:21:39;6.18;;;5.57;;
40284;SDS011;25997;50.214;19.354;2023-07-16T08:24:41;6.05;;;5.55;;
40284;SDS011;25997;50.214;19.354;2023-07-16T08:27:43;6.40;;;5.80;;
40284;SDS011;25997;50.214;19.354;2023-07-16T08:30:46;7.60;;;5.32;;
40284;SDS011;25997;50.214;19.354;2023-07-16T08:33:49;6.15;;;5.55;;
40284;SDS011;25997;50.214;19.354;2023-07-16T08:36:54;6.80;;;6.20;;
40284;SDS011;25997;50.214;19.354;2023-07-16T08:39:57;9.93;;;6.72;;
40284;SDS011;25997;50.214;19.354;2023-07-16T08:42:59;6.95;;;6.30;;
40284;SDS011;25997;50.214;19.354;2023-07-16T08:46:02;12.60;;;7.93;;
40284;SDS011;25997;50.214;19.354;2023-07-16T08:49:05;7.57;;;6.88;;
40284;SDS011;25997;50.214;19.354;2023-07-16T08:52:10;8.43;;;7.57;;
40284;SDS011;25997;50.214;19.354;2023-07-16T08:55:14;10.07;;;8.48;;
40284;SDS011;25997;50.214;19.354;2023-07-16T08:58:16;8.35;;;6.93;;
40284;SDS011;25997;50.214;19.354;2023-07-16T09:01:19;9.48;;;8.13;;
40284;SDS011;25997;50.214;19.354;2023-07-16T09:04:22;9.30;;;8.30;;
40284;SDS011;25997;50.214;19.354;2023-07-16T09:07:26;9.70;;;8.80;;
40284;SDS011;25997;50.214;19.354;2023-07-16T09:10:29;9.73;;;8.55;;
40284;SDS011;25997;50.214;19.354;2023-07-16T09:13:32;11.25;;;10.15;;
40284;SDS011;25997;50.214;19.354;2023-07-16T09:16:34;11.48;;;10.38;;
40284;SDS011;25997;50.214;19.354;2023-07-16T09:19:37;11.52;;;10.40;;
40284;SDS011;25997;50.214;19.354;2023-07-16T09:22:41;11.60;;;10.35;;
40284;SDS011;25997;50.214;19.354;2023-07-16T09:25:43;10.50;;;9.70;;
40284;SDS011;25997;50.214;19.354;2023-07-16T09:28:47;10.52;;;9.60;;
40284;SDS011;25997;50.214;19.354;2023-07-16T09:31:52;10.35;;;9.48;;
40284;SDS011;25997;50.214;19.354;2023-07-16T09:34:55;11.80;;;10.75;;
40284;SDS011;25997;50.214;19.354;2023-07-16T09:37:59;12.15;;;11.05;;
40284;SDS011;25997;50.214;19.354;2023-07-16T09:41:02;11.95;;;10.75;;
40284;SDS011;25997;50.214;19.354;2023-07-16T09:44:05;12.77;;;11.77;;
40284;SDS011;25997;50.214;19.354;2023-07-16T09:47:08;12.05;;;10.85;;
40284;SDS011;25997;50.214;19.354;2023-07-16T09:50:11;12.35;;;11.35;;
40284;SDS011;25997;50.214;19.354;2023-07-16T09:53:15;12.13;;;11.07;;
40284;SDS011;25997;50.214;19.354;2023-07-16T09:56:20;12.73;;;11.73;;
40284;SDS011;25997;50.214;19.354;2023-07-16T09:59:23;13.88;;;12.68;;
40284;SDS011;25997;50.214;19.354;2023-07-16T10:02:29;12.73;;;11.60;;
40284;SDS011;25997;50.214;19.354;2023-07-16T10:05:34;13.75;;;12.75;;
40284;SDS011;25997;50.214;19.354;2023-07-16T10:08:40;14.18;;;12.98;;
40284;SDS011;25997;50.214;19.354;2023-07-16T10:11:42;12.55;;;11.57;;
40284;SDS011;25997;50.214;19.354;2023-07-16T10:14:46;14.13;;;12.93;;
40284;SDS011;25997;50.214;19.354;2023-07-16T10:17:50;11.95;;;10.77;;
40284;SDS011;25997;50.214;19.354;2023-07-16T10:20:53;13.25;;;12.23;;
40284;SDS011;25997;50.214;19.354;2023-07-16T10:24:00;13.73;;;12.63;;
40284;SDS011;25997;50.214;19.354;2023-07-16T10:27:03;14.25;;;13.05;;
40284;SDS011;25997;50.214;19.354;2023-07-16T10:30:06;13.30;;;12.30;;
40284;SDS011;25997;50.214;19.354;2023-07-16T10:33:11;13.55;;;12.32;;
40284;SDS011;25997;50.214;19.354;2023-07-16T10:36:17;13.45;;;12.45;;
40284;SDS011;25997;50.214;19.354;2023-07-16T10:39:22;13.15;;;12.00;;
40284;SDS011;25997;50.214;19.354;2023-07-16T10:42:25;13.98;;;12.80;;
40284;SDS011;25997;50.214;19.354;2023-07-16T10:45:29;12.40;;;11.38;;
40284;SDS011;25997;50.214;19.354;2023-07-16T10:48:31;12.38;;;11.35;;
40284;SDS011;25997;50.214;19.354;2023-07-16T10:51:34;12.27;;;11.38;;
40284;SDS011;25997;50.214;19.354;2023-07-16T10:54:38;12.40;;;11.35;;
40284;SDS011;25997;50.214;19.354;2023-07-16T10:57:42;12.73;;;11.57;;
40284;SDS011;25997;50.214;19.354;2023-07-16T11:00:45;13.60;;;12.55;;
40284;SDS011;25997;50.214;19.354;2023-07-16T11:03:48;13.27;;;12.27;;
40284;SDS011;25997;50.214;19.354;2023-07-16T11:06:50;13.70;;;12.40;;
40284;SDS011;25997;50.214;19.354;2023-07-16T11:09:54;12.52;;;11.63;;
40284;SDS011;25997;50.214;19.354;2023-07-16T11:12:57;11.80;;;10.90;;
40284;SDS011;25997;50.214;19.354;2023-07-16T11:16:06;14.80;;;13.50;;
40284;SDS011;25997;50.214;19.354;2023-07-16T11:19:09;13.90;;;12.45;;
40284;SDS011;25997;50.214;19.354;2023-07-16T11:22:12;13.02;;;11.93;;
40284;SDS011;25997;50.214;19.354;2023-07-16T11:25:16;12.38;;;11.38;;
40284;SDS011;25997;50.214;19.354;2023-07-16T11:28:20;11.75;;;10.63;;
40284;SDS011;25997;50.214;19.354;2023-07-16T11:31:23;10.20;;;9.40;;
40284;SDS011;25997;50.214;19.354;2023-07-16T11:34:25;8.73;;;7.90;;
40284;SDS011;25997;50.214;19.354;2023-07-16T11:37:28;8.65;;;7.95;;
40284;SDS011;25997;50.214;19.354;2023-07-16T11:40:33;16.55;;;14.90;;
40284;SDS011;25997;50.214;19.354;2023-07-16T11:43:37;13.15;;;8.32;;
40284;SDS011;25997;50.214;19.354;2023-07-16T11:46:41;9.45;;;8.50;;
40284;SDS011;25997;50.214;19.354;2023-07-16T11:49:48;11.32;;;9.57;;
40284;SDS011;25997;50.214;19.354;2023-07-16T11:52:52;8.93;;;8.10;;
40284;SDS011;25997;50.214;19.354;2023-07-16T11:55:56;9.07;;;8.13;;
40284;SDS011;25997;50.214;19.354;2023-07-16T11:58:59;10.00;;;8.32;;
40284;SDS011;25997;50.214;19.354;2023-07-16T12:02:02;9.98;;;8.98;;
40284;SDS011;25997;50.214;19.354;2023-07-16T12:05:05;9.93;;;9.18;;
40284;SDS011;25997;50.214;19.354;2023-07-16T12:08:09;9.77;;;8.93;;
40284;SDS011;25997;50.214;19.354;2023-07-16T12:11:16;9.75;;;9.05;;
40284;SDS011;25997;50.214;19.354;2023-07-16T12:14:18;9.85;;;9.05;;
40284;SDS011;25997;50.214;19.354;2023-07-16T12:17:21;10.10;;;9.25;;
40284;SDS011;25997;50.214;19.354;2023-07-16T12:20:23;9.82;;;8.98;;
40284;SDS011;25997;50.214;19.354;2023-07-16T12:23:25;9.00;;;8.02;;
40284;SDS011;25997;50.214;19.354;2023-07-16T12:26:29;8.77;;;7.97;;
40284;SDS011;25997;50.214;19.354;2023-07-16T12:29:32;9.32;;;8.57;;
40284;SDS011;25997;50.214;19.354;2023-07-16T12:32:34;9.48;;;8.73;;
40284;SDS011;25997;50.214;19.354;2023-07-16T12:35:36;8.75;;;7.05;;
40284;SDS011;25997;50.214;19.354;2023-07-16T12:38:39;9.27;;;8.57;;
40284;SDS011;25997;50.214;19.354;2023-07-16T12:44:46;9.32;;;8.57;;
40284;SDS011;25997;50.214;19.354;2023-07-16T12:47:50;9.18;;;8.27;;
40284;SDS011;25997;50.214;19.354;2023-07-16T12:50:52;9.57;;;8.80;;
40284;SDS011;25997;50.214;19.354;2023-07-16T12:53:55;9.23;;;8.60;;
40284;SDS011;25997;50.214;19.354;2023-07-16T12:56:58;9.32;;;8.52;;
40284;SDS011;25997;50.214;19.354;2023-07-16T13:00:01;9.60;;;8.90;;
40284;SDS011;25997;50.214;19.354;2023-07-16T13:03:05;9.05;;;8.35;;
40284;SDS011;25997;50.214;19.354;2023-07-16T13:06:12;9.02;;;8.32;;
40284;SDS011;25997;50.214;19.354;2023-07-16T13:09:14;8.63;;;7.93;;
40284;SDS011;25997;50.214;19.354;2023-07-16T13:12:18;9.13;;;8.20;;
40284;SDS011;25997;50.214;19.354;2023-07-16T13:15:21;9.00;;;7.65;;
40284;SDS011;25997;50.214;19.354;2023-07-16T13:18:23;8.15;;;7.55;;
40284;SDS011;25997;50.214;19.354;2023-07-16T13:21:26;9.20;;;8.50;;
40284;SDS011;25997;50.214;19.354;2023-07-16T13:24:28;9.93;;;9.13;;
40284;SDS011;25997;50.214;19.354;2023-07-16T13:27:32;9.00;;;8.27;;
40284;SDS011;25997;50.214;19.354;2023-07-16T13:30:35;11.57;;;7.78;;
40284;SDS011;25997;50.214;19.354;2023-07-16T13:33:37;9.05;;;8.30;;
40284;SDS011;25997;50.214;19.354;2023-07-16T13:36:40;9.70;;;8.48;;
40284;SDS011;25997;50.214;19.354;2023-07-16T13:39:42;8.95;;;8.15;;
40284;SDS011;25997;50.214;19.354;2023-07-16T13:42:46;9.55;;;8.65;;
40284;SDS011;25997;50.214;19.354;2023-07-16T13:45:49;9.43;;;8.63;;
40284;SDS011;25997;50.214;19.354;2023-07-16T13:48:52;9.02;;;8.23;;
40284;SDS011;25997;50.214;19.354;2023-07-16T13:51:54;10.20;;;9.40;;
40284;SDS011;25997;50.214;19.354;2023-07-16T13:54:57;10.43;;;9.52;;
40284;SDS011;25997;50.214;19.354;2023-07-16T13:58:01;10.68;;;9.98;;
40284;SDS011;25997;50.214;19.354;2023-07-16T14:01:03;9.93;;;9.02;;
40284;SDS011;25997;50.214;19.354;2023-07-16T14:04:06;11.07;;;10.15;;
40284;SDS011;25997;50.214;19.354;2023-07-16T14:07:09;10.20;;;9.23;;
40284;SDS011;25997;50.214;19.354;2023-07-16T14:10:11;9.95;;;9.05;;
40284;SDS011;25997;50.214;19.354;2023-07-16T14:13:15;9.43;;;8.50;;
40284;SDS011;25997;50.214;19.354;2023-07-16T14:16:18;9.32;;;8.63;;
40284;SDS011;25997;50.214;19.354;2023-07-16T14:19:21;9.90;;;9.10;;
40284;SDS011;25997;50.214;19.354;2023-07-16T14:22:24;9.88;;;8.90;;
40284;SDS011;25997;50.214;19.354;2023-07-16T14:25:28;10.18;;;9.35;;
40284;SDS011;25997;50.214;19.354;2023-07-16T14:28:32;10.35;;;9.55;;
40284;SDS011;25997;50.214;19.354;2023-07-16T14:31:34;10.02;;;9.15;;
40284;SDS011;25997;50.214;19.354;2023-07-16T14:34:37;11.35;;;10.25;;
40284;SDS011;25997;50.214;19.354;2023-07-16T14:37:39;10.63;;;9.82;;
40284;SDS011;25997;50.214;19.354;2023-07-16T14:40:42;10.93;;;9.93;;
40284;SDS011;25997;50.214;19.354;2023-07-16T14:43:46;11.43;;;9.70;;
40284;SDS011;25997;50.214;19.354;2023-07-16T14:46:50;12.60;;;10.45;;
40284;SDS011;25997;50.214;19.354;2023-07-16T14:49:52;10.20;;;9.40;;
40284;SDS011;25997;50.214;19.354;2023-07-16T14:52:55;10.55;;;9.75;;
40284;SDS011;25997;50.214;19.354;2023-07-16T14:55:57;10.82;;;9.85;;
40284;SDS011;25997;50.214;19.354;2023-07-16T14:59:01;9.60;;;8.88;;
40284;SDS011;25997;50.214;19.354;2023-07-16T15:02:05;10.20;;;9.45;;
40284;SDS011;25997;50.214;19.354;2023-07-16T15:05:08;11.75;;;9.57;;
40284;SDS011;25997;50.214;19.354;2023-07-16T15:08:11;10.77;;;9.98;;
40284;SDS011;25997;50.214;19.354;2023-07-16T15:11:13;11.95;;;11.05;;
40284;SDS011;25997;50.214;19.354;2023-07-16T15:14:17;10.90;;;10.02;;
40284;SDS011;25997;50.214;19.354;2023-07-16T15:17:20;10.77;;;10.07;;
40284;SDS011;25997;50.214;19.354;2023-07-16T15:20:23;11.15;;;10.30;;
40284;SDS011;25997;50.214;19.354;2023-07-16T15:23:27;12.10;;;11.00;;
40284;SDS011;25997;50.214;19.354;2023-07-16T15:26:30;11.20;;;10.20;;
40284;SDS011;25997;50.214;19.354;2023-07-16T15:29:34;12.13;;;11.13;;
40284;SDS011;25997;50.214;19.354;2023-07-16T15:32:36;12.43;;;11.38;;
40284;SDS011;25997;50.214;19.354;2023-07-16T15:35:39;13.00;;;11.93;;
40284;SDS011;25997;50.214;19.354;2023-07-16T15:38:42;11.60;;;10.70;;
40284;SDS011;25997;50.214;19.354;2023-07-16T15:41:44;11.35;;;10.18;;
40284;SDS011;25997;50.214;19.354;2023-07-16T15:44:48;10.30;;;9.50;;
40284;SDS011;25997;50.214;19.354;2023-07-16T15:47:51;11.75;;;10.85;;
40284;SDS011;25997;50.214;19.354;2023-07-16T15:50:57;11.65;;;10.60;;
40284;SDS011;25997;50.214;19.354;2023-07-16T15:54:00;13.80;;;12.00;;
40284;SDS011;25997;50.214;19.354;2023-07-16T15:57:07;11.60;;;10.70;;
40284;SDS011;25997;50.214;19.354;2023-07-16T16:00:12;12.60;;;11.63;;
40284;SDS011;25997;50.214;19.354;2023-07-16T16:03:16;11.25;;;10.38;;
40284;SDS011;25997;50.214;19.354;2023-07-16T16:06:18;10.73;;;9.90;;
40284;SDS011;25997;50.214;19.354;2023-07-16T16:09:21;12.68;;;11.52;;
40284;SDS011;25997;50.214;19.354;2023-07-16T16:12:24;12.18;;;11.27;;
40284;SDS011;25997;50.214;19.354;2023-07-16T16:15:28;12.00;;;10.90;;
40284;SDS011;25997;50.214;19.354;2023-07-16T16:18:30;11.68;;;10.57;;
40284;SDS011;25997;50.214;19.354;2023-07-16T16:21:33;11.63;;;10.68;;
40284;SDS011;25997;50.214;19.354;2023-07-16T16:24:36;11.18;;;10.20;;
40284;SDS011;25997;50.214;19.354;2023-07-16T16:27:39;12.00;;;11.00;;
40284;SDS011;25997;50.214;19.354;2023-07-16T16:30:43;16.65;;;15.25;;
40284;SDS011;25997;50.214;19.354;2023-07-16T16:33:46;11.63;;;10.63;;
40284;SDS011;25997;50.214;19.354;2023-07-16T16:36:49;13.23;;;11.98;;
40284;SDS011;25997;50.214;19.354;2023-07-16T16:39:52;11.55;;;10.35;;
40284;SDS011;25997;50.214;19.354;2023-07-16T16:42:55;11.65;;;10.75;;
40284;SDS011;25997;50.214;19.354;2023-07-16T16:45:59;11.75;;;10.65;;
40284;SDS011;25997;50.214;19.354;2023-07-16T16:49:02;11.32;;;10.32;;
40284;SDS011;25997;50.214;19.354;2023-07-16T16:52:05;11.27;;;10.35;;
40284;SDS011;25997;50.214;19.354;2023-07-16T16:55:08;10.23;;;9.40;;
40284;SDS011;25997;50.214;19.354;2023-07-16T16:58:10;10.25;;;9.23;;
40284;SDS011;25997;50.214;19.354;2023-07-16T17:01:14;10.70;;;9.68;;
40284;SDS011;25997;50.214;19.354;2023-07-16T17:04:18;16.38;;;15.00;;
40284;SDS011;25997;50.214;19.354;2023-07-16T17:07:21;11.40;;;10.30;;
40284;SDS011;25997;50.214;19.354;2023-07-16T17:10:24;9.57;;;8.68;;
40284;SDS011;25997;50.214;19.354;2023-07-16T17:13:27;9.30;;;8.40;;
40284;SDS011;25997;50.214;19.354;2023-07-16T17:16:31;8.68;;;7.78;;
40284;SDS011;25997;50.214;19.354;2023-07-16T17:19:33;7.32;;;6.72;;
40284;SDS011;25997;50.214;19.354;2023-07-16T17:22:36;8.48;;;7.70;;
40284;SDS011;25997;50.214;19.354;2023-07-16T17:25:39;8.10;;;7.07;;
40284;SDS011;25997;50.214;19.354;2023-07-16T17:28:42;8.05;;;7.32;;
40284;SDS011;25997;50.214;19.354;2023-07-16T17:31:47;8.02;;;7.22;;
40284;SDS011;25997;50.214;19.354;2023-07-16T17:34:50;11.80;;;7.68;;
40284;SDS011;25997;50.214;19.354;2023-07-16T17:37:53;8.60;;;7.70;;
40284;SDS011;25997;50.214;19.354;2023-07-16T17:40:55;9.05;;;8.15;;
40284;SDS011;25997;50.214;19.354;2023-07-16T17:43:58;8.85;;;8.07;;
40284;SDS011;25997;50.214;19.354;2023-07-16T17:47:02;9.30;;;7.97;;
40284;SDS011;25997;50.214;19.354;2023-07-16T17:50:05;8.18;;;7.32;;
40284;SDS011;25997;50.214;19.354;2023-07-16T17:53:08;8.13;;;7.32;;
40284;SDS011;25997;50.214;19.354;2023-07-16T17:56:10;8.40;;;7.68;;
40284;SDS011;25997;50.214;19.354;2023-07-16T17:59:16;8.85;;;8.13;;
40284;SDS011;25997;50.214;19.354;2023-07-16T18:02:22;9.07;;;8.27;;